AirNav   Jet Aviation Boston
 
 882 users online  

86KY Hornback Airport
Hodgenville, Kentucky, USA

GOING TO HODGENVILLE?


FAA INFORMATION EFFECTIVE 24 MAY 2018

Location

FAA Identifier: 86KY
Lat/Long: 37-37-17.0000N / 085-47-32.0000W
37-37.283333N / 085-47.533333W
37.6213889 / -85.7922222
(estimated)
Elevation: 760 ft. / 232 m (estimated)
Variation: 02W (1985)
From city: 4 miles NW of HODGENVILLE, KY
Time zone: UTC -4 (UTC -5 during Standard Time)
Zip code: 42748

Airport Operations

Airport use: Private use, PERSONAL USE ONLY.
Activation date: 07/1991
Control tower: no
ARTCC: INDIANAPOLIS CENTER
FSS: LOUISVILLE FLIGHT SERVICE STATION
Attendance: UNATNDD
Wind indicator: yes
Segmented circle: no

Airport Communications

WX AWOS-3 at EKX (7 nm NW): 121.025 (270-763-6433)
WX AWOS-3 at BRY (18 nm NE): 119.925 (502-348-1867)

Nearby radio navigation aids

VOR radial/distance  VOR name  Freq  Var
EWOr263/5.6NEW HOPE VOR/DME110.8001E
FTKr154/19.2FORT KNOX VOR/DME109.6001W
MYSr128/(27.0)MYSTIC VOR108.2001W
IIUr198/30.7LOUISVILLE VORTAC114.8001E
BQMr193/37.0BOWMAN VOR/DME112.2004W

 
NDB name  Hdg/Dist  Freq  Var  ID
GODMAN160/22.039603WGOI --. --- ..

Airport Services

Runway Information

Runway 18/36

Dimensions: 1200 x 75 ft. / 366 x 23 m
Surface: turf
Operational restrictions: ONLY USABLE RY IS 18.
RUNWAY 18  RUNWAY 36
Traffic pattern: leftleft

Runway 5/23

Dimensions: 900 x 50 ft. / 274 x 15 m
Surface: turf
Operational restrictions: ULTRALIGHTS ONLY
RUNWAY 5  RUNWAY 23
Traffic pattern: leftleft

Airport Ownership and Management from official FAA records

Ownership: Privately-owned
Owner: JAMES D HORNBACK
4754 OLDETOWN RD
HODGENVILLE, KY 42748
Phone 270-358-4838
Manager: JAMES D HORNBACK
4754 OLDETOWN RD
HODGENVILLE, KY 42748
Phone 270-358-4838

Airport Operational Statistics

Aircraft based on the field: 1
Ultralights: 1
    

Additional Remarks

OWNER DESIRES ARPT NOT BE CHARTED.

Instrument Procedures

There are no published instrument procedures at 86KY.

Some nearby airports with instrument procedures:

KEKX - Addington Field Airport (7 nm NW)
KBRY - Samuels Field Airport (18 nm NE)
KFTK - Godman Army Airfield (19 nm NW)
6I2 - Lebanon Springfield Airport-George Hoerter Field (26 nm E)
KAAS - Taylor County Airport (28 nm SE)
 
Loc | Ops | Rwys | IFR | FBO | Links
Com | Nav | Svcs | Stats | Notes

AirNav Hotels Sweepstakes
 
Area around 86KY (Hornback Airport)
 
Road maps at: MapQuest Bing Google
 
Aerial photo
No photo
 
Sectional chart

 
Airport distance calculator
Flying to Hornback Airport? Find the distance to fly.

From to 86KY

Sunrise and sunset
Times for 27-May-2018
 Local
(UTC-4)
 Zulu
(UTC)
Morning civil twilight05:5609:56
Sunrise06:2610:26
Sunset20:5400:54
Evening civil twilight21:2401:24

Current date and time
Zulu (UTC)  27-May-2018 22:12:13
Local (UTC-4)  27-May-2018 18:12:13
 
METAR
KEKX 
7nm NW 
272155Z AUTO 30004KT 10SM SCT090 BKN110 23/19 A2992 RMK AO2 LTG DSNT SW AND W P0001 T02270193
KFTK 
18nm NW 
272156Z AUTO 10003KT 10SM CLR 26/18 A2992 RMK AO2 LTG DSNT SE SLP128 T02610182
KBRY 
18nm NE 
272155Z AUTO 20007KT 10SM SCT006 SCT011 21/20 A2992 RMK AO1
TAF
KFTK 
18nm NW 
271700Z 2717/2823 18009KT 9999 SCT045 SCT100 QNH2995INS TEMPO 2718/2722 20012G18KT 6000 -TSRA SCT010 OVC045CB BECMG 2814/2815 07015G20KT 9999 SCT035 QNH2993INS BECMG 2822/2823 09006KT 9999 FEW035 QNH2992INS TX30/2719Z TN21/2810Z
NOTAMs
Click for the latest NOTAMs
NOTAMs are issued by the DoD/FAA and will open in a separate window not controlled by AirNav.

 

 
 

Would you like to see your business listed on this page?

 If your business provides an interesting product or service to pilots, flight crews, aircraft, or users of the Hornback Airport, you should consider listing it here.  To start the listing process, click on the button below
 
Add a business
 

Other Pages about Hornback Airport

Update a link
 
Copyright © AirNav, LLC. All rights reserved. Privacy Policy  Contact